sensor_id;sensor_type;location;lat;lon;timestamp;pressure;altitude;pressure_sealevel;temperature;humidity
49945;BME280;35838;49.134;9.212;2023-04-01T15:02:49;98640.81;;;10.93;70.96
49945;BME280;35838;49.134;9.212;2023-04-01T21:03:18;98963.81;;;9.84;76.84
49945;BME280;35838;49.134;9.212;2023-04-01T21:05:16;98966.34;;;9.89;77.13
49945;BME280;35838;49.134;9.212;2023-04-01T21:08:47;98976.75;;;9.86;77.19
49945;BME280;35838;49.134;9.212;2023-04-01T21:10:28;98979.75;;;9.60;77.89
49945;BME280;35838;49.134;9.212;2023-04-01T21:12:05;98983.91;;;9.68;78.12
49945;BME280;35838;49.134;9.212;2023-04-01T21:13:49;98991.66;;;9.71;78.30
49945;BME280;35838;49.134;9.212;2023-04-01T21:15:30;98987.38;;;9.69;78.25
49945;BME280;35838;49.134;9.212;2023-04-01T21:17:08;98994.97;;;9.80;78.03
49945;BME280;35838;49.134;9.212;2023-04-01T21:18:53;98992.53;;;9.70;77.63
49945;BME280;35838;49.134;9.212;2023-04-01T21:20:40;98986.41;;;9.76;77.61
49945;BME280;35838;49.134;9.212;2023-04-01T21:22:20;98995.81;;;9.82;77.80
49945;BME280;35838;49.134;9.212;2023-04-01T21:23:59;98995.94;;;9.74;77.93
49945;BME280;35838;49.134;9.212;2023-04-01T21:25:40;98996.66;;;9.82;77.67
49945;BME280;35838;49.134;9.212;2023-04-01T21:27:26;98989.09;;;9.68;77.87
49945;BME280;35838;49.134;9.212;2023-04-01T21:29:11;98993.44;;;9.66;77.92
49945;BME280;35838;49.134;9.212;2023-04-01T21:30:59;98999.38;;;9.75;77.96
49945;BME280;35838;49.134;9.212;2023-04-01T21:32:40;98995.06;;;9.75;78.07
49945;BME280;35838;49.134;9.212;2023-04-01T21:36:10;98994.78;;;9.92;77.19
49945;BME280;35838;49.134;9.212;2023-04-01T21:37:56;99004.34;;;9.90;77.15
49945;BME280;35838;49.134;9.212;2023-04-01T21:39:38;99006.13;;;9.85;77.21
49945;BME280;35838;49.134;9.212;2023-04-01T21:41:20;99008.03;;;9.72;77.41
49945;BME280;35838;49.134;9.212;2023-04-01T21:43:00;99004.50;;;9.78;77.24
49945;BME280;35838;49.134;9.212;2023-04-01T21:44:41;99007.88;;;9.83;77.11
49945;BME280;35838;49.134;9.212;2023-04-01T21:46:22;99009.63;;;9.82;76.53
49945;BME280;35838;49.134;9.212;2023-04-01T21:52:02;99018.78;;;9.46;78.43
49945;BME280;35838;49.134;9.212;2023-04-01T21:55:36;99015.09;;;9.62;77.74
49945;BME280;35838;49.134;9.212;2023-04-01T22:04:51;99013.44;;;9.58;77.78
49945;BME280;35838;49.134;9.212;2023-04-01T22:06:30;99018.50;;;9.66;77.24
49945;BME280;35838;49.134;9.212;2023-04-01T22:08:12;99018.41;;;9.74;77.02
49945;BME280;35838;49.134;9.212;2023-04-01T22:09:52;99013.22;;;9.74;76.76
49945;BME280;35838;49.134;9.212;2023-04-01T22:11:30;99025.44;;;9.64;77.36
49945;BME280;35838;49.134;9.212;2023-04-01T22:13:10;99010.78;;;9.63;77.56
49945;BME280;35838;49.134;9.212;2023-04-01T22:14:48;99020.22;;;9.65;77.44
49945;BME280;35838;49.134;9.212;2023-04-01T22:16:27;99028.34;;;9.42;77.95
49945;BME280;35838;49.134;9.212;2023-04-01T22:18:04;99022.19;;;9.48;78.11
49945;BME280;35838;49.134;9.212;2023-04-01T22:19:40;99023.84;;;9.55;78.29
49945;BME280;35838;49.134;9.212;2023-04-01T22:21:22;99030.88;;;9.45;78.34
49945;BME280;35838;49.134;9.212;2023-04-01T22:23:16;99023.75;;;9.61;77.97
49945;BME280;35838;49.134;9.212;2023-04-01T22:24:56;99025.50;;;9.59;78.01
49945;BME280;35838;49.134;9.212;2023-04-01T22:26:35;99014.22;;;9.63;78.06
49945;BME280;35838;49.134;9.212;2023-04-01T22:28:12;99022.81;;;9.65;77.87
49945;BME280;35838;49.134;9.212;2023-04-01T22:29:52;99018.44;;;9.70;77.36
49945;BME280;35838;49.134;9.212;2023-04-01T22:31:28;99024.59;;;9.63;77.51
49945;BME280;35838;49.134;9.212;2023-04-01T22:33:03;99025.38;;;9.68;77.45
49945;BME280;35838;49.134;9.212;2023-04-01T22:34:39;99034.94;;;9.65;77.16
49945;BME280;35838;49.134;9.212;2023-04-01T22:36:19;99036.81;;;9.55;77.45
49945;BME280;35838;49.134;9.212;2023-04-01T22:37:57;99036.88;;;9.50;78.33
49945;BME280;35838;49.134;9.212;2023-04-01T22:39:39;99035.97;;;9.53;78.33
49945;BME280;35838;49.134;9.212;2023-04-01T22:41:14;99037.75;;;9.48;78.61
49945;BME280;35838;49.134;9.212;2023-04-01T22:42:53;99040.38;;;9.45;78.35
49945;BME280;35838;49.134;9.212;2023-04-01T22:44:30;99041.28;;;9.40;78.71
49945;BME280;35838;49.134;9.212;2023-04-01T22:46:20;99044.75;;;9.39;78.79
49945;BME280;35838;49.134;9.212;2023-04-01T22:47:57;99051.72;;;9.37;79.12
49945;BME280;35838;49.134;9.212;2023-04-01T22:49:37;99036.88;;;9.49;79.08
49945;BME280;35838;49.134;9.212;2023-04-01T22:51:13;99044.88;;;9.30;79.46
49945;BME280;35838;49.134;9.212;2023-04-01T22:52:48;99046.47;;;9.40;79.49
49945;BME280;35838;49.134;9.212;2023-04-01T22:54:25;99051.72;;;9.37;79.63
49945;BME280;35838;49.134;9.212;2023-04-01T22:56:05;99048.97;;;9.48;79.60
49945;BME280;35838;49.134;9.212;2023-04-01T22:57:42;99054.41;;;9.28;79.59
49945;BME280;35838;49.134;9.212;2023-04-01T22:59:19;99057.97;;;9.19;80.30
49945;BME280;35838;49.134;9.212;2023-04-01T23:00:54;99063.19;;;9.15;80.38
49945;BME280;35838;49.134;9.212;2023-04-01T23:02:30;99066.66;;;9.14;80.38
49945;BME280;35838;49.134;9.212;2023-04-01T23:04:07;99064.03;;;9.17;80.19
49945;BME280;35838;49.134;9.212;2023-04-01T23:05:46;99065.06;;;9.03;80.60
49945;BME280;35838;49.134;9.212;2023-04-01T23:07:30;99072.78;;;9.06;80.65
49945;BME280;35838;49.134;9.212;2023-04-01T23:09:08;99072.75;;;9.09;80.75
49945;BME280;35838;49.134;9.212;2023-04-01T23:10:45;99071.03;;;9.08;80.99
49945;BME280;35838;49.134;9.212;2023-04-01T23:12:26;99079.53;;;9.20;80.81
49945;BME280;35838;49.134;9.212;2023-04-01T23:14:04;99077.88;;;9.13;80.63
49945;BME280;35838;49.134;9.212;2023-04-01T23:15:39;99077.94;;;9.06;81.11
49945;BME280;35838;49.134;9.212;2023-04-01T23:17:16;99080.47;;;9.13;81.16
49945;BME280;35838;49.134;9.212;2023-04-01T23:18:54;99079.53;;;9.18;80.93
49945;BME280;35838;49.134;9.212;2023-04-01T23:22:21;99078.66;;;9.21;80.35
49945;BME280;35838;49.134;9.212;2023-04-01T23:24:00;99091.66;;;9.18;80.75
49945;BME280;35838;49.134;9.212;2023-04-01T23:25:38;99089.91;;;9.18;80.80
49945;BME280;35838;49.134;9.212;2023-04-01T23:27:15;99091.53;;;9.27;80.82
49945;BME280;35838;49.134;9.212;2023-04-01T23:28:55;99091.41;;;9.38;80.54
49945;BME280;35838;49.134;9.212;2023-04-01T23:32:16;99100.97;;;9.33;80.25
49945;BME280;35838;49.134;9.212;2023-04-01T23:33:52;99095.91;;;9.20;80.17
49945;BME280;35838;49.134;9.212;2023-04-01T23:35:24;99095.28;;;9.01;80.96
49945;BME280;35838;49.134;9.212;2023-04-01T23:36:58;99103.00;;;9.06;81.48
49945;BME280;35838;49.134;9.212;2023-04-01T23:38:33;99110.72;;;9.07;81.80
49945;BME280;35838;49.134;9.212;2023-04-01T23:40:06;99109.09;;;8.97;82.19
49945;BME280;35838;49.134;9.212;2023-04-01T23:41:45;99112.44;;;9.10;82.29
49945;BME280;35838;49.134;9.212;2023-04-01T23:43:19;99113.25;;;9.15;82.29
49945;BME280;35838;49.134;9.212;2023-04-01T23:44:58;99118.41;;;9.17;81.58
49945;BME280;35838;49.134;9.212;2023-04-01T23:46:34;99119.19;;;9.22;82.13
49945;BME280;35838;49.134;9.212;2023-04-01T23:48:05;99121.78;;;9.22;81.73
49945;BME280;35838;49.134;9.212;2023-04-01T23:49:41;99125.25;;;9.22;82.28
49945;BME280;35838;49.134;9.212;2023-04-01T23:51:20;99124.25;;;9.34;82.06
49945;BME280;35838;49.134;9.212;2023-04-01T23:52:56;99121.66;;;9.34;81.65
49945;BME280;35838;49.134;9.212;2023-04-01T23:54:32;99121.53;;;9.45;81.74
49945;BME280;35838;49.134;9.212;2023-04-01T23:56:03;99129.22;;;9.53;81.19
49945;BME280;35838;49.134;9.212;2023-04-01T23:57:38;99128.41;;;9.46;80.90
49945;BME280;35838;49.134;9.212;2023-04-01T23:59:14;99128.53;;;9.37;81.44
